sensor_id;sensor_type;location;lat;lon;timestamp;P1;durP1;ratioP1;P2;durP2;ratioP2
51048;SDS011;37084;55.228;36.450;2023-05-19T00:00:57;5.65;;;4.75;;
51048;SDS011;37084;55.228;36.450;2023-05-19T00:04:00;5.40;;;4.75;;
51048;SDS011;37084;55.228;36.450;2023-05-19T00:07:02;4.97;;;4.50;;
51048;SDS011;37084;55.228;36.450;2023-05-19T00:10:05;7.75;;;4.43;;
51048;SDS011;37084;55.228;36.450;2023-05-19T00:13:07;6.15;;;4.55;;
51048;SDS011;37084;55.228;36.450;2023-05-19T00:16:08;6.28;;;4.15;;
51048;SDS011;37084;55.228;36.450;2023-05-19T00:19:10;4.60;;;4.10;;
51048;SDS011;37084;55.228;36.450;2023-05-19T00:22:13;5.95;;;4.18;;
51048;SDS011;37084;55.228;36.450;2023-05-19T00:25:14;4.00;;;3.60;;
51048;SDS011;37084;55.228;36.450;2023-05-19T00:28:15;4.57;;;4.05;;
51048;SDS011;37084;55.228;36.450;2023-05-19T00:31:17;5.18;;;3.55;;
51048;SDS011;37084;55.228;36.450;2023-05-19T00:34:18;4.70;;;3.60;;
51048;SDS011;37084;55.228;36.450;2023-05-19T00:37:19;5.05;;;3.60;;
51048;SDS011;37084;55.228;36.450;2023-05-19T00:40:21;4.65;;;4.10;;
51048;SDS011;37084;55.228;36.450;2023-05-19T00:43:23;4.38;;;3.20;;
51048;SDS011;37084;55.228;36.450;2023-05-19T00:46:24;6.22;;;4.20;;
51048;SDS011;37084;55.228;36.450;2023-05-19T00:49:26;6.00;;;4.20;;
51048;SDS011;37084;55.228;36.450;2023-05-19T00:52:27;6.10;;;4.40;;
51048;SDS011;37084;55.228;36.450;2023-05-19T00:55:29;5.80;;;4.18;;
51048;SDS011;37084;55.228;36.450;2023-05-19T00:58:31;8.32;;;5.15;;
51048;SDS011;37084;55.228;36.450;2023-05-19T01:01:33;8.77;;;4.80;;
51048;SDS011;37084;55.228;36.450;2023-05-19T01:04:34;7.53;;;4.68;;
51048;SDS011;37084;55.228;36.450;2023-05-19T01:07:37;9.18;;;5.47;;
51048;SDS011;37084;55.228;36.450;2023-05-19T01:10:38;7.05;;;5.10;;
51048;SDS011;37084;55.228;36.450;2023-05-19T01:13:40;7.68;;;4.63;;
51048;SDS011;37084;55.228;36.450;2023-05-19T01:16:42;5.72;;;4.07;;
51048;SDS011;37084;55.228;36.450;2023-05-19T01:26:08;8.75;;;4.30;;
51048;SDS011;37084;55.228;36.450;2023-05-19T01:32:50;5.47;;;3.72;;
51048;SDS011;37084;55.228;36.450;2023-05-19T01:35:54;5.93;;;4.70;;
51048;SDS011;37084;55.228;36.450;2023-05-19T01:38:58;6.18;;;4.57;;
51048;SDS011;37084;55.228;36.450;2023-05-19T01:42:00;4.90;;;4.18;;
51048;SDS011;37084;55.228;36.450;2023-05-19T01:45:02;5.28;;;3.72;;
51048;SDS011;37084;55.228;36.450;2023-05-19T01:48:06;5.43;;;3.50;;
51048;SDS011;37084;55.228;36.450;2023-05-19T01:51:08;5.97;;;3.75;;
51048;SDS011;37084;55.228;36.450;2023-05-19T01:54:09;4.57;;;3.50;;
51048;SDS011;37084;55.228;36.450;2023-05-19T01:57:23;4.25;;;3.25;;
51048;SDS011;37084;55.228;36.450;2023-05-19T02:07:36;4.40;;;3.20;;
51048;SDS011;37084;55.228;36.450;2023-05-19T02:10:44;4.25;;;3.58;;
51048;SDS011;37084;55.228;36.450;2023-05-19T02:13:48;5.72;;;4.00;;
51048;SDS011;37084;55.228;36.450;2023-05-19T02:16:51;4.60;;;3.65;;
51048;SDS011;37084;55.228;36.450;2023-05-19T02:19:52;4.20;;;3.70;;
51048;SDS011;37084;55.228;36.450;2023-05-19T02:22:54;4.70;;;3.45;;
51048;SDS011;37084;55.228;36.450;2023-05-19T02:25:55;4.60;;;3.35;;
51048;SDS011;37084;55.228;36.450;2023-05-19T02:28:57;5.13;;;3.42;;
51048;SDS011;37084;55.228;36.450;2023-05-19T02:31:59;5.80;;;4.05;;
51048;SDS011;37084;55.228;36.450;2023-05-19T02:35:01;5.97;;;4.40;;
51048;SDS011;37084;55.228;36.450;2023-05-19T02:38:04;6.53;;;4.57;;
51048;SDS011;37084;55.228;36.450;2023-05-19T02:41:06;7.82;;;4.88;;
51048;SDS011;37084;55.228;36.450;2023-05-19T02:44:07;8.38;;;5.03;;
51048;SDS011;37084;55.228;36.450;2023-05-19T02:47:10;6.68;;;4.88;;
51048;SDS011;37084;55.228;36.450;2023-05-19T02:50:12;9.32;;;5.75;;
51048;SDS011;37084;55.228;36.450;2023-05-19T02:53:13;6.18;;;5.00;;
51048;SDS011;37084;55.228;36.450;2023-05-19T02:56:15;7.22;;;5.35;;
51048;SDS011;37084;55.228;36.450;2023-05-19T02:59:16;8.00;;;5.50;;
51048;SDS011;37084;55.228;36.450;2023-05-19T03:02:17;7.00;;;5.47;;
51048;SDS011;37084;55.228;36.450;2023-05-19T03:05:19;8.55;;;5.78;;
51048;SDS011;37084;55.228;36.450;2023-05-19T03:08:20;8.18;;;6.10;;
51048;SDS011;37084;55.228;36.450;2023-05-19T03:11:21;8.35;;;5.75;;
51048;SDS011;37084;55.228;36.450;2023-05-19T03:14:23;7.78;;;6.03;;
51048;SDS011;37084;55.228;36.450;2023-05-19T03:17:24;12.40;;;5.57;;
51048;SDS011;37084;55.228;36.450;2023-05-19T03:20:25;6.40;;;5.05;;
51048;SDS011;37084;55.228;36.450;2023-05-19T03:23:27;6.65;;;5.32;;
51048;SDS011;37084;55.228;36.450;2023-05-19T03:26:28;6.93;;;5.53;;
51048;SDS011;37084;55.228;36.450;2023-05-19T03:29:30;8.13;;;5.03;;
51048;SDS011;37084;55.228;36.450;2023-05-19T03:32:32;9.23;;;5.45;;
51048;SDS011;37084;55.228;36.450;2023-05-19T03:35:33;7.57;;;4.65;;
51048;SDS011;37084;55.228;36.450;2023-05-19T03:38:35;9.55;;;5.47;;
51048;SDS011;37084;55.228;36.450;2023-05-19T03:41:36;7.68;;;5.05;;
51048;SDS011;37084;55.228;36.450;2023-05-19T03:44:37;7.00;;;5.13;;
51048;SDS011;37084;55.228;36.450;2023-05-19T03:47:39;8.10;;;5.03;;
51048;SDS011;37084;55.228;36.450;2023-05-19T03:51:01;8.00;;;5.47;;
51048;SDS011;37084;55.228;36.450;2023-05-19T03:54:04;8.18;;;5.00;;
51048;SDS011;37084;55.228;36.450;2023-05-19T03:57:05;6.80;;;5.03;;
51048;SDS011;37084;55.228;36.450;2023-05-19T04:00:07;6.35;;;5.05;;
51048;SDS011;37084;55.228;36.450;2023-05-19T04:03:13;7.88;;;5.05;;
51048;SDS011;37084;55.228;36.450;2023-05-19T04:06:14;6.60;;;4.90;;
51048;SDS011;37084;55.228;36.450;2023-05-19T04:09:17;7.35;;;5.32;;
51048;SDS011;37084;55.228;36.450;2023-05-19T04:12:18;7.15;;;4.53;;
51048;SDS011;37084;55.228;36.450;2023-05-19T04:15:20;10.80;;;4.88;;
51048;SDS011;37084;55.228;36.450;2023-05-19T04:18:21;6.15;;;4.60;;
51048;SDS011;37084;55.228;36.450;2023-05-19T04:21:22;8.00;;;4.78;;
51048;SDS011;37084;55.228;36.450;2023-05-19T04:24:24;5.88;;;4.68;;
51048;SDS011;37084;55.228;36.450;2023-05-19T04:27:25;6.82;;;4.45;;
51048;SDS011;37084;55.228;36.450;2023-05-19T04:30:29;7.75;;;4.85;;
51048;SDS011;37084;55.228;36.450;2023-05-19T04:33:30;8.80;;;5.05;;
51048;SDS011;37084;55.228;36.450;2023-05-19T04:36:33;8.65;;;4.75;;
51048;SDS011;37084;55.228;36.450;2023-05-19T04:39:36;7.45;;;4.93;;
51048;SDS011;37084;55.228;36.450;2023-05-19T04:42:49;8.95;;;5.03;;
51048;SDS011;37084;55.228;36.450;2023-05-19T04:45:52;5.80;;;4.75;;
51048;SDS011;37084;55.228;36.450;2023-05-19T04:48:55;6.00;;;4.88;;
51048;SDS011;37084;55.228;36.450;2023-05-19T04:51:57;8.57;;;5.05;;
51048;SDS011;37084;55.228;36.450;2023-05-19T04:55:02;5.53;;;4.00;;
51048;SDS011;37084;55.228;36.450;2023-05-19T04:58:06;9.65;;;4.50;;
51048;SDS011;37084;55.228;36.450;2023-05-19T05:01:08;6.05;;;4.72;;
51048;SDS011;37084;55.228;36.450;2023-05-19T05:04:09;5.32;;;4.15;;
51048;SDS011;37084;55.228;36.450;2023-05-19T05:07:10;7.15;;;4.60;;
51048;SDS011;37084;55.228;36.450;2023-05-19T05:10:12;6.70;;;4.68;;
51048;SDS011;37084;55.228;36.450;2023-05-19T05:13:14;7.10;;;4.95;;
51048;SDS011;37084;55.228;36.450;2023-05-19T05:16:16;6.80;;;4.55;;
51048;SDS011;37084;55.228;36.450;2023-05-19T05:19:18;5.00;;;4.25;;
51048;SDS011;37084;55.228;36.450;2023-05-19T05:22:19;6.10;;;4.45;;
51048;SDS011;37084;55.228;36.450;2023-05-19T05:25:21;5.28;;;4.28;;
51048;SDS011;37084;55.228;36.450;2023-05-19T05:28:24;8.32;;;4.85;;
51048;SDS011;37084;55.228;36.450;2023-05-19T05:31:26;6.13;;;4.75;;
51048;SDS011;37084;55.228;36.450;2023-05-19T05:34:28;7.03;;;4.60;;
51048;SDS011;37084;55.228;36.450;2023-05-19T05:37:29;4.90;;;4.40;;
51048;SDS011;37084;55.228;36.450;2023-05-19T05:40:31;5.88;;;5.03;;
51048;SDS011;37084;55.228;36.450;2023-05-19T05:43:32;7.15;;;5.05;;
51048;SDS011;37084;55.228;36.450;2023-05-19T05:46:37;8.05;;;4.85;;
51048;SDS011;37084;55.228;36.450;2023-05-19T05:49:38;9.30;;;4.63;;
51048;SDS011;37084;55.228;36.450;2023-05-19T05:52:40;6.55;;;4.22;;
51048;SDS011;37084;55.228;36.450;2023-05-19T05:55:42;8.55;;;5.53;;
51048;SDS011;37084;55.228;36.450;2023-05-19T05:58:44;6.30;;;3.80;;
51048;SDS011;37084;55.228;36.450;2023-05-19T06:01:45;7.57;;;5.03;;
51048;SDS011;37084;55.228;36.450;2023-05-19T06:04:51;8.85;;;5.03;;
51048;SDS011;37084;55.228;36.450;2023-05-19T06:07:54;6.15;;;4.95;;
51048;SDS011;37084;55.228;36.450;2023-05-19T06:10:59;7.35;;;5.80;;
51048;SDS011;37084;55.228;36.450;2023-05-19T06:14:03;9.93;;;6.35;;
51048;SDS011;37084;55.228;36.450;2023-05-19T06:17:39;7.55;;;5.55;;
51048;SDS011;37084;55.228;36.450;2023-05-19T06:20:40;9.48;;;5.40;;
51048;SDS011;37084;55.228;36.450;2023-05-19T06:23:42;6.05;;;5.18;;
51048;SDS011;37084;55.228;36.450;2023-05-19T06:26:45;8.23;;;5.72;;
51048;SDS011;37084;55.228;36.450;2023-05-19T06:29:46;9.45;;;6.22;;
51048;SDS011;37084;55.228;36.450;2023-05-19T06:32:47;6.85;;;5.35;;
51048;SDS011;37084;55.228;36.450;2023-05-19T06:35:49;9.20;;;5.70;;
51048;SDS011;37084;55.228;36.450;2023-05-19T06:38:50;7.57;;;5.57;;
51048;SDS011;37084;55.228;36.450;2023-05-19T06:41:51;9.07;;;5.78;;
51048;SDS011;37084;55.228;36.450;2023-05-19T06:45:11;8.80;;;5.25;;
51048;SDS011;37084;55.228;36.450;2023-05-19T06:48:13;9.48;;;5.75;;
51048;SDS011;37084;55.228;36.450;2023-05-19T06:51:15;10.57;;;6.47;;
51048;SDS011;37084;55.228;36.450;2023-05-19T06:54:23;9.43;;;6.18;;
51048;SDS011;37084;55.228;36.450;2023-05-19T06:57:25;9.00;;;5.47;;
51048;SDS011;37084;55.228;36.450;2023-05-19T07:00:27;8.05;;;6.32;;
51048;SDS011;37084;55.228;36.450;2023-05-19T07:03:29;6.93;;;4.97;;
51048;SDS011;37084;55.228;36.450;2023-05-19T07:06:30;9.13;;;6.53;;
51048;SDS011;37084;55.228;36.450;2023-05-19T07:09:32;9.43;;;5.25;;
51048;SDS011;37084;55.228;36.450;2023-05-19T07:12:34;8.55;;;5.90;;
51048;SDS011;37084;55.228;36.450;2023-05-19T07:15:35;8.48;;;6.55;;
51048;SDS011;37084;55.228;36.450;2023-05-19T07:18:37;7.85;;;5.90;;
51048;SDS011;37084;55.228;36.450;2023-05-19T07:21:38;6.80;;;5.50;;
51048;SDS011;37084;55.228;36.450;2023-05-19T07:24:40;8.23;;;5.72;;
51048;SDS011;37084;55.228;36.450;2023-05-19T07:27:41;8.45;;;6.18;;
51048;SDS011;37084;55.228;36.450;2023-05-19T07:30:42;8.32;;;5.50;;
51048;SDS011;37084;55.228;36.450;2023-05-19T07:33:43;8.82;;;5.45;;
51048;SDS011;37084;55.228;36.450;2023-05-19T07:36:45;10.05;;;7.13;;
51048;SDS011;37084;55.228;36.450;2023-05-19T07:39:46;8.02;;;5.78;;
51048;SDS011;37084;55.228;36.450;2023-05-19T07:42:48;8.25;;;6.18;;
51048;SDS011;37084;55.228;36.450;2023-05-19T07:45:50;7.85;;;5.43;;
51048;SDS011;37084;55.228;36.450;2023-05-19T07:48:53;7.97;;;6.50;;
51048;SDS011;37084;55.228;36.450;2023-05-19T07:51:54;8.90;;;6.80;;
51048;SDS011;37084;55.228;36.450;2023-05-19T07:54:57;10.40;;;5.30;;
51048;SDS011;37084;55.228;36.450;2023-05-19T07:57:59;8.27;;;6.35;;
51048;SDS011;37084;55.228;36.450;2023-05-19T08:01:00;10.95;;;6.72;;
51048;SDS011;37084;55.228;36.450;2023-05-19T08:04:02;9.60;;;6.47;;
51048;SDS011;37084;55.228;36.450;2023-05-19T08:07:03;8.98;;;6.63;;
51048;SDS011;37084;55.228;36.450;2023-05-19T08:10:05;9.23;;;6.13;;
51048;SDS011;37084;55.228;36.450;2023-05-19T08:13:07;8.85;;;5.57;;
51048;SDS011;37084;55.228;36.450;2023-05-19T08:16:08;7.40;;;5.90;;
51048;SDS011;37084;55.228;36.450;2023-05-19T08:19:09;7.95;;;6.35;;
51048;SDS011;37084;55.228;36.450;2023-05-19T08:22:10;8.35;;;6.18;;
51048;SDS011;37084;55.228;36.450;2023-05-19T08:25:12;8.65;;;5.97;;
51048;SDS011;37084;55.228;36.450;2023-05-19T08:28:13;8.70;;;6.53;;
51048;SDS011;37084;55.228;36.450;2023-05-19T08:31:14;9.00;;;6.63;;
51048;SDS011;37084;55.228;36.450;2023-05-19T08:34:18;8.23;;;6.18;;
51048;SDS011;37084;55.228;36.450;2023-05-19T08:37:19;6.97;;;6.15;;
51048;SDS011;37084;55.228;36.450;2023-05-19T08:40:21;6.78;;;5.68;;
51048;SDS011;37084;55.228;36.450;2023-05-19T08:43:22;8.10;;;6.38;;
51048;SDS011;37084;55.228;36.450;2023-05-19T08:46:24;6.95;;;5.40;;
51048;SDS011;37084;55.228;36.450;2023-05-19T08:49:26;8.48;;;6.40;;
51048;SDS011;37084;55.228;36.450;2023-05-19T08:52:40;8.65;;;6.20;;
51048;SDS011;37084;55.228;36.450;2023-05-19T08:55:46;7.95;;;6.13;;
51048;SDS011;37084;55.228;36.450;2023-05-19T08:58:58;7.00;;;6.25;;
51048;SDS011;37084;55.228;36.450;2023-05-19T09:02:01;7.10;;;4.63;;
51048;SDS011;37084;55.228;36.450;2023-05-19T09:05:06;6.85;;;5.95;;
51048;SDS011;37084;55.228;36.450;2023-05-19T09:08:08;9.20;;;5.50;;
51048;SDS011;37084;55.228;36.450;2023-05-19T09:11:10;8.20;;;4.90;;
51048;SDS011;37084;55.228;36.450;2023-05-19T09:14:12;23.38;;;7.47;;
51048;SDS011;37084;55.228;36.450;2023-05-19T09:17:13;7.40;;;5.45;;
51048;SDS011;37084;55.228;36.450;2023-05-19T09:20:15;5.78;;;5.28;;
51048;SDS011;37084;55.228;36.450;2023-05-19T09:23:17;7.93;;;5.18;;
51048;SDS011;37084;55.228;36.450;2023-05-19T09:26:18;6.95;;;4.90;;
51048;SDS011;37084;55.228;36.450;2023-05-19T09:29:23;8.23;;;5.10;;
51048;SDS011;37084;55.228;36.450;2023-05-19T09:32:25;5.25;;;4.40;;
51048;SDS011;37084;55.228;36.450;2023-05-19T09:35:27;6.45;;;4.85;;
51048;SDS011;37084;55.228;36.450;2023-05-19T09:38:28;5.70;;;4.25;;
51048;SDS011;37084;55.228;36.450;2023-05-19T09:41:29;6.47;;;4.95;;
51048;SDS011;37084;55.228;36.450;2023-05-19T09:44:31;7.80;;;4.60;;
51048;SDS011;37084;55.228;36.450;2023-05-19T09:47:38;8.65;;;5.38;;
51048;SDS011;37084;55.228;36.450;2023-05-19T09:50:43;4.88;;;4.47;;
51048;SDS011;37084;55.228;36.450;2023-05-19T09:53:46;4.25;;;3.40;;
51048;SDS011;37084;55.228;36.450;2023-05-19T09:57:00;5.00;;;3.75;;
51048;SDS011;37084;55.228;36.450;2023-05-19T10:00:04;3.65;;;2.70;;
51048;SDS011;37084;55.228;36.450;2023-05-19T10:03:14;4.22;;;3.65;;
51048;SDS011;37084;55.228;36.450;2023-05-19T10:06:17;4.90;;;3.80;;
51048;SDS011;37084;55.228;36.450;2023-05-19T10:09:22;5.45;;;4.20;;
51048;SDS011;37084;55.228;36.450;2023-05-19T10:12:24;4.65;;;3.15;;
51048;SDS011;37084;55.228;36.450;2023-05-19T10:15:26;3.45;;;3.15;;
51048;SDS011;37084;55.228;36.450;2023-05-19T10:18:27;3.88;;;3.22;;
51048;SDS011;37084;55.228;36.450;2023-05-19T10:21:29;4.10;;;3.70;;
51048;SDS011;37084;55.228;36.450;2023-05-19T10:24:30;5.53;;;3.35;;
51048;SDS011;37084;55.228;36.450;2023-05-19T10:27:33;3.67;;;3.03;;
51048;SDS011;37084;55.228;36.450;2023-05-19T10:30:46;3.65;;;3.13;;
51048;SDS011;37084;55.228;36.450;2023-05-19T10:33:59;3.42;;;2.72;;
51048;SDS011;37084;55.228;36.450;2023-05-19T10:40:16;9.00;;;3.38;;
51048;SDS011;37084;55.228;36.450;2023-05-19T10:43:35;4.93;;;3.45;;
51048;SDS011;37084;55.228;36.450;2023-05-19T10:46:43;3.45;;;3.10;;
51048;SDS011;37084;55.228;36.450;2023-05-19T10:49:45;3.55;;;2.90;;
51048;SDS011;37084;55.228;36.450;2023-05-19T10:52:51;4.60;;;2.60;;
51048;SDS011;37084;55.228;36.450;2023-05-19T10:55:55;3.40;;;3.00;;
51048;SDS011;37084;55.228;36.450;2023-05-19T10:58:56;4.07;;;3.45;;
51048;SDS011;37084;55.228;36.450;2023-05-19T11:02:02;3.67;;;2.70;;
51048;SDS011;37084;55.228;36.450;2023-05-19T11:08:14;5.38;;;2.88;;
51048;SDS011;37084;55.228;36.450;2023-05-19T11:11:16;5.10;;;3.03;;
51048;SDS011;37084;55.228;36.450;2023-05-19T11:14:22;3.63;;;2.67;;
51048;SDS011;37084;55.228;36.450;2023-05-19T11:17:24;5.25;;;2.90;;
51048;SDS011;37084;55.228;36.450;2023-05-19T11:20:27;3.78;;;2.33;;
51048;SDS011;37084;55.228;36.450;2023-05-19T11:23:32;4.25;;;2.30;;
51048;SDS011;37084;55.228;36.450;2023-05-19T11:26:40;2.53;;;2.08;;
51048;SDS011;37084;55.228;36.450;2023-05-19T11:29:42;2.75;;;2.33;;
51048;SDS011;37084;55.228;36.450;2023-05-19T11:32:46;3.75;;;2.75;;
51048;SDS011;37084;55.228;36.450;2023-05-19T11:38:49;4.03;;;2.88;;
51048;SDS011;37084;55.228;36.450;2023-05-19T11:41:54;2.92;;;2.70;;
51048;SDS011;37084;55.228;36.450;2023-05-19T11:44:55;5.05;;;2.65;;
51048;SDS011;37084;55.228;36.450;2023-05-19T11:47:59;4.22;;;2.83;;
51048;SDS011;37084;55.228;36.450;2023-05-19T11:51:04;3.17;;;2.60;;
51048;SDS011;37084;55.228;36.450;2023-05-19T11:54:06;5.28;;;2.65;;
51048;SDS011;37084;55.228;36.450;2023-05-19T11:57:08;3.72;;;2.78;;
51048;SDS011;37084;55.228;36.450;2023-05-19T12:00:13;3.80;;;2.40;;
51048;SDS011;37084;55.228;36.450;2023-05-19T12:03:19;3.05;;;2.72;;
51048;SDS011;37084;55.228;36.450;2023-05-19T12:06:21;3.00;;;2.70;;
51048;SDS011;37084;55.228;36.450;2023-05-19T12:09:22;4.32;;;2.45;;
51048;SDS011;37084;55.228;36.450;2023-05-19T12:12:24;2.90;;;2.60;;
51048;SDS011;37084;55.228;36.450;2023-05-19T12:15:25;4.20;;;2.80;;
51048;SDS011;37084;55.228;36.450;2023-05-19T12:18:28;5.38;;;2.60;;
51048;SDS011;37084;55.228;36.450;2023-05-19T12:21:31;3.35;;;2.25;;
51048;SDS011;37084;55.228;36.450;2023-05-19T12:24:33;4.85;;;2.65;;
51048;SDS011;37084;55.228;36.450;2023-05-19T12:27:35;3.17;;;2.20;;
51048;SDS011;37084;55.228;36.450;2023-05-19T12:30:39;3.75;;;2.10;;
51048;SDS011;37084;55.228;36.450;2023-05-19T12:33:41;3.78;;;2.53;;
51048;SDS011;37084;55.228;36.450;2023-05-19T12:36:42;3.17;;;2.10;;
51048;SDS011;37084;55.228;36.450;2023-05-19T12:39:44;2.63;;;2.42;;
51048;SDS011;37084;55.228;36.450;2023-05-19T12:42:45;4.03;;;2.47;;
51048;SDS011;37084;55.228;36.450;2023-05-19T12:45:48;2.80;;;2.60;;
51048;SDS011;37084;55.228;36.450;2023-05-19T12:48:49;3.88;;;2.50;;
51048;SDS011;37084;55.228;36.450;2023-05-19T12:51:51;3.17;;;2.03;;
51048;SDS011;37084;55.228;36.450;2023-05-19T12:54:57;3.00;;;2.47;;
51048;SDS011;37084;55.228;36.450;2023-05-19T12:57:59;1.98;;;1.75;;
51048;SDS011;37084;55.228;36.450;2023-05-19T13:01:05;2.63;;;2.28;;
51048;SDS011;37084;55.228;36.450;2023-05-19T13:04:07;2.60;;;2.00;;
51048;SDS011;37084;55.228;36.450;2023-05-19T13:07:09;3.55;;;2.08;;
51048;SDS011;37084;55.228;36.450;2023-05-19T13:10:10;5.65;;;2.10;;
51048;SDS011;37084;55.228;36.450;2023-05-19T13:13:11;3.72;;;1.88;;
51048;SDS011;37084;55.228;36.450;2023-05-19T13:16:13;2.47;;;1.85;;
51048;SDS011;37084;55.228;36.450;2023-05-19T13:19:16;1.98;;;1.52;;
51048;SDS011;37084;55.228;36.450;2023-05-19T13:22:18;3.60;;;1.40;;
51048;SDS011;37084;55.228;36.450;2023-05-19T13:25:19;1.80;;;1.70;;
51048;SDS011;37084;55.228;36.450;2023-05-19T13:28:20;2.72;;;1.90;;
51048;SDS011;37084;55.228;36.450;2023-05-19T13:31:23;3.80;;;2.00;;
51048;SDS011;37084;55.228;36.450;2023-05-19T13:34:24;4.65;;;2.55;;
51048;SDS011;37084;55.228;36.450;2023-05-19T13:37:25;5.25;;;1.98;;
51048;SDS011;37084;55.228;36.450;2023-05-19T13:40:27;1.92;;;1.83;;
51048;SDS011;37084;55.228;36.450;2023-05-19T13:43:32;2.80;;;1.90;;
51048;SDS011;37084;55.228;36.450;2023-05-19T13:46:33;4.18;;;2.05;;
51048;SDS011;37084;55.228;36.450;2023-05-19T13:49:34;2.97;;;1.80;;
51048;SDS011;37084;55.228;36.450;2023-05-19T13:52:35;2.70;;;1.33;;
51048;SDS011;37084;55.228;36.450;2023-05-19T13:55:36;3.40;;;2.20;;
51048;SDS011;37084;55.228;36.450;2023-05-19T13:58:37;3.22;;;1.58;;
51048;SDS011;37084;55.228;36.450;2023-05-19T14:01:38;1.88;;;1.70;;
51048;SDS011;37084;55.228;36.450;2023-05-19T14:04:40;3.25;;;1.90;;
51048;SDS011;37084;55.228;36.450;2023-05-19T14:07:41;4.70;;;1.83;;
51048;SDS011;37084;55.228;36.450;2023-05-19T14:10:47;3.03;;;1.20;;
51048;SDS011;37084;55.228;36.450;2023-05-19T14:13:50;3.55;;;1.70;;
51048;SDS011;37084;55.228;36.450;2023-05-19T14:16:51;2.80;;;1.90;;
51048;SDS011;37084;55.228;36.450;2023-05-19T14:19:52;3.92;;;1.52;;
51048;SDS011;37084;55.228;36.450;2023-05-19T14:22:53;4.10;;;1.70;;
51048;SDS011;37084;55.228;36.450;2023-05-19T14:25:55;2.72;;;1.35;;
51048;SDS011;37084;55.228;36.450;2023-05-19T14:28:56;4.97;;;1.73;;
51048;SDS011;37084;55.228;36.450;2023-05-19T14:31:57;1.40;;;1.30;;
51048;SDS011;37084;55.228;36.450;2023-05-19T14:34:58;3.10;;;1.50;;
51048;SDS011;37084;55.228;36.450;2023-05-19T14:37:59;1.85;;;1.45;;
51048;SDS011;37084;55.228;36.450;2023-05-19T14:41:01;2.72;;;1.40;;
51048;SDS011;37084;55.228;36.450;2023-05-19T14:44:03;4.50;;;1.33;;
51048;SDS011;37084;55.228;36.450;2023-05-19T14:47:05;2.42;;;1.40;;
51048;SDS011;37084;55.228;36.450;2023-05-19T14:50:06;3.55;;;1.50;;
51048;SDS011;37084;55.228;36.450;2023-05-19T14:53:08;5.55;;;1.67;;
51048;SDS011;37084;55.228;36.450;2023-05-19T14:56:09;1.70;;;1.60;;
51048;SDS011;37084;55.228;36.450;2023-05-19T14:59:10;3.30;;;1.65;;
51048;SDS011;37084;55.228;36.450;2023-05-19T15:02:11;2.90;;;1.35;;
51048;SDS011;37084;55.228;36.450;2023-05-19T15:05:12;1.92;;;1.50;;
51048;SDS011;37084;55.228;36.450;2023-05-19T15:08:14;2.22;;;1.38;;
51048;SDS011;37084;55.228;36.450;2023-05-19T15:11:15;3.97;;;1.50;;
51048;SDS011;37084;55.228;36.450;2023-05-19T15:14:18;3.40;;;1.60;;
51048;SDS011;37084;55.228;36.450;2023-05-19T15:17:19;2.75;;;1.35;;
51048;SDS011;37084;55.228;36.450;2023-05-19T15:20:20;3.05;;;1.60;;
51048;SDS011;37084;55.228;36.450;2023-05-19T15:23:21;1.65;;;1.55;;
51048;SDS011;37084;55.228;36.450;2023-05-19T15:26:22;3.38;;;1.45;;
51048;SDS011;37084;55.228;36.450;2023-05-19T15:29:23;2.30;;;1.33;;
51048;SDS011;37084;55.228;36.450;2023-05-19T15:32:25;3.60;;;1.58;;
51048;SDS011;37084;55.228;36.450;2023-05-19T15:35:26;2.92;;;1.33;;
51048;SDS011;37084;55.228;36.450;2023-05-19T15:38:27;2.65;;;1.60;;
51048;SDS011;37084;55.228;36.450;2023-05-19T15:41:28;3.15;;;1.75;;
51048;SDS011;37084;55.228;36.450;2023-05-19T15:44:29;3.53;;;1.90;;
51048;SDS011;37084;55.228;36.450;2023-05-19T15:47:30;3.42;;;2.40;;
51048;SDS011;37084;55.228;36.450;2023-05-19T15:50:31;3.33;;;1.20;;
51048;SDS011;37084;55.228;36.450;2023-05-19T15:53:33;1.90;;;1.50;;
51048;SDS011;37084;55.228;36.450;2023-05-19T15:56:34;2.15;;;1.02;;
51048;SDS011;37084;55.228;36.450;2023-05-19T15:59:35;2.88;;;1.73;;
51048;SDS011;37084;55.228;36.450;2023-05-19T16:02:36;3.35;;;1.65;;
51048;SDS011;37084;55.228;36.450;2023-05-19T16:05:37;2.35;;;1.52;;
51048;SDS011;37084;55.228;36.450;2023-05-19T16:08:38;3.85;;;2.22;;
51048;SDS011;37084;55.228;36.450;2023-05-19T16:11:40;6.60;;;3.33;;
51048;SDS011;37084;55.228;36.450;2023-05-19T16:14:41;2.83;;;1.80;;
51048;SDS011;37084;55.228;36.450;2023-05-19T16:17:42;3.65;;;1.92;;
51048;SDS011;37084;55.228;36.450;2023-05-19T16:20:43;4.03;;;1.48;;
51048;SDS011;37084;55.228;36.450;2023-05-19T16:23:44;13.20;;;2.97;;
51048;SDS011;37084;55.228;36.450;2023-05-19T16:26:46;4.85;;;2.10;;
51048;SDS011;37084;55.228;36.450;2023-05-19T16:29:48;4.55;;;2.13;;
51048;SDS011;37084;55.228;36.450;2023-05-19T16:32:49;4.28;;;2.10;;
51048;SDS011;37084;55.228;36.450;2023-05-19T16:35:52;4.28;;;2.40;;
51048;SDS011;37084;55.228;36.450;2023-05-19T16:38:54;7.88;;;2.05;;
51048;SDS011;37084;55.228;36.450;2023-05-19T16:41:55;3.63;;;1.85;;
51048;SDS011;37084;55.228;36.450;2023-05-19T16:44:56;4.80;;;2.35;;
51048;SDS011;37084;55.228;36.450;2023-05-19T16:47:57;2.47;;;1.98;;
51048;SDS011;37084;55.228;36.450;2023-05-19T16:50:59;5.85;;;3.45;;
51048;SDS011;37084;55.228;36.450;2023-05-19T16:54:00;7.55;;;2.38;;
51048;SDS011;37084;55.228;36.450;2023-05-19T16:57:01;6.20;;;2.13;;
51048;SDS011;37084;55.228;36.450;2023-05-19T17:00:03;5.65;;;2.00;;
51048;SDS011;37084;55.228;36.450;2023-05-19T17:03:06;12.65;;;11.55;;
51048;SDS011;37084;55.228;36.450;2023-05-19T17:06:08;13.90;;;12.50;;
51048;SDS011;37084;55.228;36.450;2023-05-19T17:09:09;6.53;;;4.47;;
51048;SDS011;37084;55.228;36.450;2023-05-19T17:12:10;3.88;;;2.00;;
51048;SDS011;37084;55.228;36.450;2023-05-19T17:15:11;3.53;;;1.85;;
51048;SDS011;37084;55.228;36.450;2023-05-19T17:18:12;2.47;;;1.58;;
51048;SDS011;37084;55.228;36.450;2023-05-19T17:21:15;3.65;;;1.88;;
51048;SDS011;37084;55.228;36.450;2023-05-19T17:24:17;3.80;;;1.95;;
51048;SDS011;37084;55.228;36.450;2023-05-19T17:27:18;3.05;;;1.70;;
51048;SDS011;37084;55.228;36.450;2023-05-19T17:30:19;3.53;;;1.90;;
51048;SDS011;37084;55.228;36.450;2023-05-19T17:33:20;4.82;;;1.90;;
51048;SDS011;37084;55.228;36.450;2023-05-19T17:36:21;3.58;;;2.00;;
51048;SDS011;37084;55.228;36.450;2023-05-19T17:39:23;2.85;;;1.63;;
51048;SDS011;37084;55.228;36.450;2023-05-19T17:42:24;3.17;;;2.03;;
51048;SDS011;37084;55.228;36.450;2023-05-19T17:45:25;2.60;;;1.38;;
51048;SDS011;37084;55.228;36.450;2023-05-19T17:48:26;2.63;;;2.03;;
51048;SDS011;37084;55.228;36.450;2023-05-19T17:51:28;2.65;;;2.20;;
51048;SDS011;37084;55.228;36.450;2023-05-19T17:54:29;2.90;;;1.95;;
51048;SDS011;37084;55.228;36.450;2023-05-19T17:57:30;2.92;;;1.70;;
51048;SDS011;37084;55.228;36.450;2023-05-19T18:00:33;2.95;;;1.98;;
51048;SDS011;37084;55.228;36.450;2023-05-19T18:03:34;3.05;;;1.98;;
51048;SDS011;37084;55.228;36.450;2023-05-19T18:06:36;2.85;;;2.08;;
51048;SDS011;37084;55.228;36.450;2023-05-19T18:09:39;3.58;;;1.98;;
51048;SDS011;37084;55.228;36.450;2023-05-19T18:12:42;15.18;;;2.17;;
51048;SDS011;37084;55.228;36.450;2023-05-19T18:15:43;3.55;;;1.73;;
51048;SDS011;37084;55.228;36.450;2023-05-19T18:18:44;2.67;;;2.47;;
51048;SDS011;37084;55.228;36.450;2023-05-19T18:21:49;1.92;;;1.70;;
51048;SDS011;37084;55.228;36.450;2023-05-19T18:24:51;3.05;;;2.13;;
51048;SDS011;37084;55.228;36.450;2023-05-19T18:27:52;4.68;;;1.98;;